createdAt,value
2018-06-14T00:01:58.516Z,95.50
2018-06-14T00:04:28.383Z,101.03
2018-06-14T00:06:58.113Z,83.73
2018-06-14T00:09:27.957Z,107.50
2018-06-14T00:11:57.531Z,97.57
2018-06-14T00:14:27.251Z,112.67
2018-06-14T00:16:57.156Z,91.10
2018-06-14T00:19:26.571Z,91.10
2018-06-14T00:21:56.299Z,86.83
2018-06-14T00:24:26.097Z,70.60
2018-06-14T00:26:55.816Z,81.40
2018-06-14T00:29:25.679Z,76.87
2018-06-14T00:31:55.545Z,61.00
2018-06-14T00:34:25.362Z,44.43
2018-06-14T00:36:55.055Z,36.30
2018-06-14T00:39:25.011Z,44.37
2018-06-14T00:41:54.731Z,39.13
2018-06-14T00:44:24.450Z,21.57
2018-06-14T00:46:54.239Z,22.00
2018-06-14T00:49:24.002Z,19.83
2018-06-14T00:51:53.824Z,22.53
2018-06-14T00:54:23.637Z,27.83
2018-06-14T00:57:04.648Z,26.77
2018-06-14T00:59:34.272Z,21.77
2018-06-14T01:02:04.055Z,24.20
2018-06-14T01:04:33.537Z,40.63
2018-06-14T01:07:03.476Z,39.63
2018-06-14T01:09:33.530Z,34.23
2018-06-14T01:12:03.620Z,33.80
2018-06-14T01:14:33.535Z,36.47
2018-06-14T01:17:04.071Z,43.73
2018-06-14T01:19:33.768Z,45.20
2018-06-14T01:22:03.939Z,43.10
2018-06-14T01:24:33.759Z,47.60
2018-06-14T01:27:07.246Z,51.27
2018-06-14T01:29:37.200Z,47.93
2018-06-14T01:32:06.890Z,50.37
2018-06-14T01:34:36.921Z,46.07
2018-06-14T01:37:07.108Z,47.97
2018-06-14T01:39:36.707Z,46.50
2018-06-14T01:42:06.522Z,29.93
2018-06-14T01:44:36.252Z,27.63
2018-06-14T01:47:06.257Z,26.67
2018-06-14T01:49:36.180Z,26.50
2018-06-14T01:52:06.126Z,27.60
2018-06-14T01:54:36.010Z,25.50
2018-06-14T01:57:05.831Z,28.60
2018-06-14T01:59:35.674Z,32.47
2018-06-14T02:02:06.075Z,27.87
2018-06-14T02:04:35.802Z,27.37
2018-06-14T02:07:05.616Z,26.40
2018-06-14T02:09:35.117Z,18.77
2018-06-14T02:12:05.821Z,27.07
2018-06-14T02:14:35.874Z,38.53
2018-06-14T02:17:05.627Z,37.63
2018-06-14T02:19:35.316Z,30.67
2018-06-14T02:22:05.314Z,32.03
2018-06-14T02:24:35.130Z,28.07
2018-06-14T02:27:04.909Z,29.57
2018-06-14T02:29:34.690Z,31.63
2018-06-14T02:32:04.646Z,27.63
2018-06-14T02:34:34.476Z,27.73
2018-06-14T02:37:04.289Z,31.30
2018-06-14T02:39:34.059Z,30.00
2018-06-14T02:42:03.915Z,29.07
2018-06-14T02:44:33.653Z,31.00
2018-06-14T02:47:03.391Z,33.30
2018-06-14T02:49:33.292Z,29.13
2018-06-14T02:52:02.727Z,37.57
2018-06-14T02:54:32.666Z,36.00
2018-06-14T02:57:02.948Z,39.60
2018-06-14T02:59:32.703Z,27.53
2018-06-14T03:02:02.492Z,36.53
2018-06-14T03:04:32.412Z,32.83
2018-06-14T03:07:02.451Z,34.43
2018-06-14T03:09:32.146Z,36.43
2018-06-14T03:12:01.952Z,39.17
2018-06-14T03:14:31.649Z,33.40
2018-06-14T03:17:02.009Z,36.10
2018-06-14T03:19:31.693Z,34.97
2018-06-14T03:22:01.489Z,41.43
2018-06-14T03:24:31.231Z,26.87
2018-06-14T03:27:01.037Z,29.07
2018-06-14T03:29:30.776Z,30.07
2018-06-14T03:32:00.960Z,36.37
2018-06-14T03:34:31.578Z,28.37
2018-06-14T03:37:01.791Z,25.83
2018-06-14T03:39:31.653Z,29.30
2018-06-14T03:42:07.393Z,31.60
2018-06-14T03:44:38.168Z,30.60
2018-06-14T03:47:08.635Z,26.73
2018-06-14T03:49:39.827Z,28.77
2018-06-14T03:52:10.806Z,28.10
2018-06-14T03:54:40.790Z,36.60
2018-06-14T03:57:10.559Z,36.37
2018-06-14T03:59:40.314Z,30.03
2018-06-14T04:02:09.762Z,29.50
2018-06-14T04:04:39.752Z,27.37
2018-06-14T04:07:09.698Z,36.93
2018-06-14T04:09:39.689Z,30.33
2018-06-14T04:12:09.387Z,30.63
2018-06-14T04:14:39.154Z,31.80
2018-06-14T04:17:09.564Z,31.23
2018-06-14T04:19:39.237Z,29.87
2018-06-14T04:22:08.890Z,34.90
2018-06-14T04:24:38.617Z,37.17
2018-06-14T04:27:08.304Z,33.40
2018-06-14T04:29:38.694Z,38.03
2018-06-14T04:32:08.489Z,36.37
2018-06-14T04:34:38.190Z,38.00
2018-06-14T04:37:07.925Z,38.20
2018-06-14T04:39:37.666Z,37.83
2018-06-14T04:42:07.671Z,33.00
2018-06-14T04:44:37.500Z,31.03
2018-06-14T04:47:07.379Z,32.10
2018-06-14T04:49:37.744Z,34.53
2018-06-14T04:52:08.175Z,42.00
2018-06-14T04:54:38.131Z,55.03
2018-06-14T04:57:07.614Z,102.03
2018-06-14T04:59:37.303Z,90.13
2018-06-14T05:02:07.297Z,772.33
2018-06-14T05:04:37.104Z,1999.90
2018-06-14T05:07:07.126Z,1999.90
2018-06-14T05:09:36.905Z,1999.90
2018-06-14T05:12:06.782Z,753.37
2018-06-14T05:14:36.525Z,264.33
2018-06-14T05:17:06.447Z,86.00
2018-06-14T05:19:36.347Z,50.50
2018-06-14T05:22:06.435Z,15.07
2018-06-14T05:24:36.691Z,11.17
2018-06-14T05:27:07.098Z,6.40
2018-06-14T05:29:36.873Z,5.13
2018-06-14T05:32:06.865Z,4.23
2018-06-14T05:34:36.767Z,5.47
2018-06-14T05:37:06.634Z,6.27
2018-06-14T05:39:37.059Z,5.72
2018-06-14T05:42:07.392Z,5.92
2018-06-14T05:44:37.925Z,6.35
2018-06-14T05:47:08.194Z,5.08
2018-06-14T05:49:38.831Z,8.43
2018-06-14T05:52:09.238Z,6.33
2018-06-14T05:54:39.834Z,4.47
2018-06-14T05:57:10.385Z,5.53
2018-06-14T05:59:41.387Z,4.78
2018-06-14T06:02:12.189Z,4.22
2018-06-14T06:04:42.490Z,7.47
2018-06-14T06:07:12.898Z,5.87
2018-06-14T06:09:43.212Z,4.72
2018-06-14T06:12:14.292Z,4.60
2018-06-14T06:14:45.052Z,4.05
2018-06-14T06:17:15.423Z,6.10
2018-06-14T06:19:46.078Z,3.95
2018-06-14T06:22:16.340Z,4.87
2018-06-14T06:24:47.910Z,3.77
2018-06-14T06:27:18.288Z,3.55
2018-06-14T06:29:49.479Z,4.87
2018-06-14T06:32:19.950Z,4.35
2018-06-14T06:34:50.848Z,7.53
2018-06-14T06:37:21.196Z,4.35
2018-06-14T06:39:51.600Z,4.55
2018-06-14T06:42:23.007Z,4.92
2018-06-14T06:44:53.524Z,5.37
2018-06-14T06:47:24.046Z,3.80
2018-06-14T06:49:54.446Z,4.37
2018-06-14T06:52:24.712Z,4.20
2018-06-14T06:54:55.010Z,6.37
2018-06-14T06:57:25.738Z,5.75
2018-06-14T06:59:56.213Z,4.80
2018-06-14T07:02:26.474Z,5.05
2018-06-14T07:04:56.827Z,4.00
2018-06-14T07:07:27.120Z,5.47
2018-06-14T07:09:57.474Z,6.50
2018-06-14T07:12:27.866Z,6.22
2018-06-14T07:14:58.226Z,7.25
2018-06-14T07:17:28.537Z,6.15
2018-06-14T07:19:59.651Z,6.12
2018-06-14T07:22:29.967Z,4.92
2018-06-14T07:25:00.515Z,4.10
2018-06-14T07:27:30.991Z,4.97
2018-06-14T07:30:01.463Z,4.60
2018-06-14T07:32:31.691Z,6.30
2018-06-14T07:35:02.762Z,5.20
2018-06-14T07:37:33.110Z,4.17
2018-06-14T07:40:03.443Z,4.05
2018-06-14T07:42:33.864Z,4.08
2018-06-14T07:45:04.206Z,3.87
2018-06-14T07:47:34.511Z,6.03
2018-06-14T07:50:04.688Z,6.35
2018-06-14T07:52:34.963Z,5.08
2018-06-14T07:55:05.607Z,3.75
2018-06-14T07:57:35.722Z,5.00
2018-06-14T08:00:06.098Z,5.08
2018-06-14T08:02:36.735Z,4.22
2018-06-14T08:05:06.996Z,6.87
2018-06-14T08:07:37.546Z,5.35
2018-06-14T08:10:08.348Z,4.78
2018-06-14T08:12:38.821Z,4.87
2018-06-14T08:15:09.267Z,6.30
2018-06-14T08:17:39.619Z,4.83
2018-06-14T08:20:09.975Z,4.55
2018-06-14T08:22:40.453Z,4.75
2018-06-14T08:25:10.766Z,5.28
2018-06-14T08:27:41.103Z,4.97
2018-06-14T08:30:11.505Z,5.87
2018-06-14T08:32:41.798Z,7.95
2018-06-14T08:35:12.087Z,7.47
2018-06-14T08:37:42.464Z,4.25
2018-06-14T08:40:12.767Z,7.22
2018-06-14T08:42:42.571Z,3.90
2018-06-14T08:45:12.362Z,7.10
2018-06-14T08:47:42.095Z,6.17
2018-06-14T08:50:12.468Z,7.97
2018-06-14T08:52:42.895Z,4.97
2018-06-14T08:55:13.388Z,4.12
2018-06-14T08:57:43.343Z,3.80
2018-06-14T09:00:13.106Z,7.33
2018-06-14T09:02:43.131Z,5.37
2018-06-14T09:05:13.387Z,4.95
2018-06-14T09:07:43.672Z,6.55
2018-06-14T09:10:14.617Z,6.28
2018-06-14T09:12:44.952Z,8.65
2018-06-14T09:15:15.304Z,7.72
2018-06-14T09:17:45.606Z,4.45
2018-06-14T09:20:16.230Z,6.65
2018-06-14T09:22:46.684Z,6.30
2018-06-14T09:25:17.042Z,6.50
2018-06-14T09:27:47.334Z,5.72
2018-06-14T09:30:17.685Z,5.85
2018-06-14T09:32:48.527Z,5.20
2018-06-14T09:35:18.335Z,4.47
2018-06-14T09:37:49.139Z,4.23
2018-06-14T09:40:19.443Z,6.27
2018-06-14T09:42:49.899Z,3.45
2018-06-14T09:45:20.507Z,5.08
2018-06-14T09:47:50.904Z,6.33
2018-06-14T09:50:21.315Z,4.15
2018-06-14T09:52:52.071Z,5.42
2018-06-14T09:55:22.335Z,4.92
2018-06-14T09:57:52.755Z,5.35
2018-06-14T10:00:23.037Z,3.95
2018-06-14T10:02:53.374Z,8.45
2018-06-14T10:05:23.717Z,7.15
2018-06-14T10:07:54.067Z,7.20
2018-06-14T10:10:24.368Z,5.30
2018-06-14T10:12:54.722Z,5.53
2018-06-14T10:15:25.045Z,5.87
2018-06-14T10:17:55.458Z,6.47
2018-06-14T10:20:25.772Z,6.70
2018-06-14T10:22:56.777Z,7.05
2018-06-14T10:25:27.051Z,4.28
2018-06-14T10:27:57.436Z,6.20
2018-06-14T10:30:27.793Z,3.25
2018-06-14T10:32:58.196Z,5.00
2018-06-14T10:35:28.559Z,3.65
2018-06-14T10:38:00.556Z,3.90
2018-06-14T10:40:30.922Z,4.72
2018-06-14T10:43:04.731Z,2.75
2018-06-14T10:45:35.231Z,4.33
2018-06-14T10:48:05.747Z,6.47
2018-06-14T10:50:36.065Z,6.30
2018-06-14T10:53:06.370Z,6.25
2018-06-14T10:55:36.424Z,4.83
2018-06-14T10:58:06.936Z,3.40
2018-06-14T11:00:37.199Z,4.75
2018-06-14T11:03:08.066Z,4.53
2018-06-14T11:05:38.692Z,4.85
2018-06-14T11:08:09.186Z,2.92
2018-06-14T11:10:39.538Z,3.27
2018-06-14T11:13:09.813Z,6.40
2018-06-14T11:15:40.312Z,7.55
2018-06-14T11:18:10.658Z,4.15
2018-06-14T11:20:40.958Z,5.25
2018-06-14T11:23:11.243Z,5.67
2018-06-14T11:25:41.571Z,5.30
2018-06-14T11:28:11.840Z,7.17
2018-06-14T11:30:42.339Z,3.65
2018-06-14T11:33:12.708Z,4.47
2018-06-14T11:35:43.011Z,6.58
2018-06-14T11:38:13.331Z,4.20
2018-06-14T11:40:43.650Z,6.72
2018-06-14T11:43:14.076Z,5.53
2018-06-14T11:45:44.460Z,9.10
2018-06-14T11:48:14.907Z,4.62
2018-06-14T11:50:45.556Z,5.55
2018-06-14T11:53:15.898Z,6.37
2018-06-14T11:55:46.270Z,6.65
2018-06-14T11:58:16.581Z,4.45
2018-06-14T12:00:46.875Z,10.60
2018-06-14T12:03:17.215Z,5.67
2018-06-14T12:05:47.558Z,7.62
2018-06-14T12:08:17.918Z,7.00
2018-06-14T12:10:48.346Z,4.37
2018-06-14T12:13:18.686Z,4.30
2018-06-14T12:15:49.187Z,5.50
2018-06-14T12:18:19.530Z,4.87
2018-06-14T12:20:49.808Z,4.60
2018-06-14T12:23:20.182Z,6.17
2018-06-14T12:25:50.426Z,4.90
2018-06-14T12:28:20.834Z,5.00
2018-06-14T12:30:51.119Z,6.58
2018-06-14T12:33:21.438Z,6.22
2018-06-14T12:35:51.764Z,5.95
2018-06-14T12:38:22.122Z,5.78
2018-06-14T12:40:52.605Z,7.00
2018-06-14T12:43:23.104Z,6.47
2018-06-14T12:45:53.449Z,5.65
2018-06-14T12:48:23.814Z,5.67
2018-06-14T12:50:54.307Z,5.20
2018-06-14T12:53:24.711Z,5.60
2018-06-14T12:55:55.100Z,4.37
2018-06-14T12:58:26.012Z,7.72
2018-06-14T13:00:56.564Z,7.80
2018-06-14T13:03:27.546Z,6.55
2018-06-14T13:05:58.019Z,8.93
2018-06-14T13:08:28.590Z,6.20
2018-06-14T13:10:58.978Z,5.53
2018-06-14T13:13:29.287Z,5.70
2018-06-14T13:15:59.806Z,5.72
2018-06-14T13:18:30.142Z,6.00
2018-06-14T13:21:00.384Z,5.20
2018-06-14T13:23:30.800Z,7.15
2018-06-14T13:26:01.065Z,4.45
2018-06-14T13:28:31.627Z,5.75
2018-06-14T13:31:01.972Z,5.45
2018-06-14T13:33:32.385Z,3.87
2018-06-14T13:36:02.943Z,5.85
2018-06-14T13:38:33.500Z,5.08
2018-06-14T13:41:03.806Z,7.35
2018-06-14T13:43:35.011Z,6.12
2018-06-14T13:46:06.259Z,5.10
2018-06-14T13:48:36.632Z,3.95
2018-06-14T13:51:07.107Z,3.98
2018-06-14T13:53:37.524Z,4.33
2018-06-14T13:56:07.828Z,7.65
2018-06-14T13:58:38.439Z,7.80
2018-06-14T14:01:09.070Z,4.00
2018-06-14T14:03:39.610Z,4.45
2018-06-14T14:06:09.966Z,6.42
2018-06-14T14:08:40.934Z,4.45
2018-06-14T14:11:11.031Z,6.30
2018-06-14T14:13:41.419Z,5.42
2018-06-14T14:16:11.703Z,5.83
2018-06-14T14:18:42.159Z,6.60
2018-06-14T14:21:12.450Z,5.35
2018-06-14T14:23:42.966Z,4.28
2018-06-14T14:26:13.432Z,4.10
2018-06-14T14:28:43.568Z,5.80
2018-06-14T14:31:13.882Z,4.45
2018-06-14T14:33:44.302Z,5.05
2018-06-14T14:36:14.641Z,4.65
2018-06-14T14:38:44.939Z,7.53
2018-06-14T14:41:15.263Z,5.05
2018-06-14T14:43:45.694Z,3.47
2018-06-14T14:46:16.282Z,5.83
2018-06-14T14:48:46.674Z,6.80
2018-06-14T14:51:17.326Z,4.35
2018-06-14T14:53:47.583Z,6.28
2018-06-14T14:56:17.899Z,3.83
2018-06-14T14:58:48.154Z,4.75
2018-06-14T15:01:18.475Z,4.10
2018-06-14T15:03:48.949Z,4.08
2018-06-14T15:06:19.308Z,4.33
2018-06-14T15:08:49.685Z,3.85
2018-06-14T15:11:20.105Z,7.72
2018-06-14T15:13:50.375Z,4.00
2018-06-14T15:16:20.901Z,3.55
2018-06-14T15:18:51.214Z,5.42
2018-06-14T15:21:21.613Z,8.80
2018-06-14T15:23:52.206Z,3.72
2018-06-14T15:26:22.031Z,6.37
2018-06-14T15:28:51.926Z,3.23
2018-06-14T15:31:21.613Z,2.43
2018-06-14T15:33:51.349Z,4.77
2018-06-14T15:36:21.335Z,5.50
2018-06-14T15:38:51.018Z,3.00
2018-06-14T15:41:20.923Z,3.53
2018-06-14T15:43:50.760Z,4.60
2018-06-14T15:46:20.670Z,3.50
2018-06-14T15:48:50.438Z,4.53
2018-06-14T15:51:20.453Z,3.43
2018-06-14T15:53:50.223Z,5.13
2018-06-14T15:56:42.025Z,4.13
2018-06-14T15:59:13.775Z,4.87
2018-06-14T16:01:44.030Z,3.85
2018-06-14T16:04:14.356Z,4.78
2018-06-14T16:06:44.627Z,5.78
2018-06-14T16:09:15.012Z,4.92
2018-06-14T16:11:45.430Z,4.10
2018-06-14T16:14:15.816Z,6.80
2018-06-14T16:16:46.470Z,7.83
2018-06-14T16:19:16.959Z,5.00
2018-06-14T16:21:47.292Z,4.10
2018-06-14T16:24:17.583Z,4.22
2018-06-14T16:26:47.324Z,5.13
2018-06-14T16:29:17.991Z,3.33
2018-06-14T16:31:48.372Z,6.30
2018-06-14T16:34:19.391Z,8.90
2018-06-14T16:36:49.110Z,5.42
2018-06-14T16:39:18.966Z,5.03
2018-06-14T16:41:49.242Z,6.50
2018-06-14T16:44:19.188Z,6.50
2018-06-14T16:46:49.178Z,6.80
2018-06-14T16:49:19.312Z,4.70
2018-06-14T16:51:49.121Z,3.27
2018-06-14T16:54:19.030Z,3.70
2018-06-14T16:56:48.814Z,3.97
2018-06-14T16:59:18.491Z,3.90
2018-06-14T17:01:48.190Z,2.93
2018-06-14T17:04:17.907Z,4.07
2018-06-14T17:06:47.743Z,5.27
2018-06-14T17:09:17.494Z,4.30
2018-06-14T17:11:47.386Z,4.10
2018-06-14T17:14:17.158Z,5.73
2018-06-14T17:16:46.850Z,5.57
2018-06-14T17:19:16.602Z,3.10
2018-06-14T17:21:46.300Z,6.43
2018-06-14T17:24:16.051Z,5.87
2018-06-14T17:26:46.129Z,5.63
2018-06-14T17:29:15.841Z,4.87
2018-06-14T17:31:46.223Z,6.10
2018-06-14T17:34:16.807Z,3.53
2018-06-14T17:36:46.607Z,4.93
2018-06-14T17:39:16.490Z,3.30
2018-06-14T17:41:46.205Z,5.03
2018-06-14T17:44:15.982Z,4.17
2018-06-14T17:46:45.852Z,4.90
2018-06-14T17:49:15.557Z,4.67
2018-06-14T17:51:45.403Z,8.93
2018-06-14T17:54:15.180Z,3.37
2018-06-14T17:56:45.030Z,3.73
2018-06-14T17:59:14.503Z,5.70
2018-06-14T18:01:44.664Z,3.93
2018-06-14T18:04:14.519Z,4.37
2018-06-14T18:06:44.364Z,4.80
2018-06-14T18:09:14.220Z,8.03
2018-06-14T18:11:44.035Z,4.27
2018-06-14T18:14:14.159Z,3.17
2018-06-14T18:16:43.926Z,5.00
2018-06-14T18:19:13.762Z,6.23
2018-06-14T18:21:43.687Z,4.40
2018-06-14T18:24:13.831Z,5.47
2018-06-14T18:26:43.723Z,5.20
2018-06-14T18:29:13.506Z,4.90
2018-06-14T18:31:43.342Z,6.00
2018-06-14T18:34:13.174Z,4.53
2018-06-14T18:36:43.005Z,5.37
2018-06-14T18:39:13.267Z,5.73
2018-06-14T18:41:43.008Z,7.33
2018-06-14T18:44:12.806Z,6.90
2018-06-14T18:46:42.717Z,6.83
2018-06-14T18:49:12.406Z,6.80
2018-06-14T18:51:43.041Z,10.87
2018-06-14T18:54:12.905Z,207.33
2018-06-14T18:56:42.872Z,581.27
2018-06-14T18:59:12.792Z,1100.63
2018-06-14T19:01:42.644Z,1999.90
2018-06-14T19:04:12.396Z,1999.90
2018-06-14T19:06:42.379Z,1999.90
2018-06-14T19:09:12.237Z,1999.90
2018-06-14T19:11:42.682Z,1999.90
2018-06-14T19:14:12.599Z,1999.90
2018-06-14T19:16:42.627Z,1999.90
2018-06-14T19:19:12.374Z,1999.90
2018-06-14T19:21:42.531Z,1729.83
2018-06-14T19:24:12.320Z,1504.13
2018-06-14T19:26:42.659Z,1141.20
2018-06-14T19:29:12.677Z,1012.37
2018-06-14T19:31:42.783Z,901.93
2018-06-14T19:34:12.698Z,711.40
2018-06-14T19:36:42.716Z,489.83
2018-06-14T19:39:12.471Z,408.13
2018-06-14T19:41:42.086Z,313.47
2018-06-14T19:44:11.806Z,126.43
2018-06-14T19:46:41.654Z,91.97
2018-06-14T19:49:11.599Z,48.37
2018-06-14T19:51:41.377Z,27.10
2018-06-14T19:54:11.146Z,48.40
2018-06-14T19:56:41.076Z,54.33
2018-06-14T19:59:10.781Z,22.73
2018-06-14T20:01:40.579Z,25.17
2018-06-14T20:04:10.363Z,19.17
2018-06-14T20:06:40.780Z,72.97
2018-06-14T20:09:10.867Z,23.83
2018-06-14T20:11:40.815Z,14.47
2018-06-14T20:14:10.614Z,13.77
2018-06-14T20:16:40.562Z,12.63
2018-06-14T20:19:10.538Z,8.93
2018-06-14T20:21:40.419Z,7.77
2018-06-14T20:24:10.123Z,7.90
2018-06-14T20:26:40.045Z,8.60
2018-06-14T20:29:09.956Z,11.70
2018-06-14T20:31:39.728Z,15.33
2018-06-14T20:34:09.488Z,17.37
2018-06-14T20:36:39.192Z,14.97
2018-06-14T20:39:11.197Z,11.83
2018-06-14T20:41:41.141Z,14.20
2018-06-14T20:44:11.604Z,14.87
2018-06-14T20:46:41.620Z,10.60
2018-06-14T20:49:11.391Z,9.07
2018-06-14T20:51:41.191Z,11.23
2018-06-14T20:54:11.208Z,10.37
2018-06-14T20:56:41.026Z,12.33
2018-06-14T20:59:11.407Z,13.37
2018-06-14T21:01:41.490Z,10.03
2018-06-14T21:04:11.208Z,11.13
2018-06-14T21:06:41.148Z,11.50
2018-06-14T21:09:11.596Z,11.40
2018-06-14T21:11:41.504Z,12.47
2018-06-14T21:14:11.258Z,11.23
2018-06-14T21:16:40.956Z,10.07
2018-06-14T21:19:10.937Z,11.70
2018-06-14T21:21:40.726Z,16.97
2018-06-14T21:24:10.541Z,14.37
2018-06-14T21:26:40.354Z,12.23
2018-06-14T21:29:10.148Z,9.17
2018-06-14T21:31:39.992Z,11.10
2018-06-14T21:34:09.781Z,9.13
2018-06-14T21:36:39.551Z,12.03
2018-06-14T21:39:09.599Z,10.90
2018-06-14T21:41:39.033Z,18.57
2018-06-14T21:44:08.842Z,21.83
2018-06-14T21:46:38.734Z,33.07
2018-06-14T21:49:08.470Z,20.83
2018-06-14T21:51:39.148Z,60.47
2018-06-14T21:54:08.883Z,57.60
2018-06-14T21:56:38.754Z,60.83
2018-06-14T21:59:08.210Z,81.63
2018-06-14T22:01:38.015Z,87.47
2018-06-14T22:04:07.559Z,86.00
2018-06-14T22:06:37.306Z,88.37
2018-06-14T22:09:07.845Z,90.00
2018-06-14T22:11:37.277Z,72.33
2018-06-14T22:14:07.409Z,86.73
2018-06-14T22:16:37.167Z,75.43
2018-06-14T22:19:12.641Z,54.00
2018-06-14T22:21:42.875Z,54.33
2018-06-14T22:24:12.628Z,26.03
2018-06-14T22:26:42.412Z,29.63
2018-06-14T22:29:12.318Z,34.60
2018-06-14T22:31:41.824Z,50.10
2018-06-14T22:34:22.751Z,47.60
2018-06-14T22:36:53.128Z,37.27
2018-06-14T22:39:22.947Z,27.93
2018-06-14T22:41:52.709Z,14.40
2018-06-14T22:44:22.513Z,12.27
2018-06-14T22:46:52.486Z,11.30
2018-06-14T22:49:22.256Z,10.83
2018-06-14T22:52:08.885Z,10.70
2018-06-14T22:54:38.306Z,10.20
2018-06-14T22:57:08.232Z,11.97
2018-06-14T22:59:38.175Z,10.23
2018-06-14T23:02:07.509Z,8.70
2018-06-14T23:04:37.322Z,8.10
2018-06-14T23:07:07.000Z,8.77
2018-06-14T23:10:45.870Z,8.73
2018-06-14T23:13:18.321Z,9.90
2018-06-14T23:15:48.243Z,9.70
2018-06-14T23:18:18.054Z,8.13
2018-06-14T23:20:47.812Z,9.83
2018-06-14T23:23:17.634Z,8.10
2018-06-14T23:25:47.506Z,11.17
2018-06-14T23:28:17.259Z,8.53
2018-06-14T23:30:47.037Z,9.17
2018-06-14T23:33:16.722Z,10.40
2018-06-14T23:35:46.459Z,8.60
2018-06-14T23:38:16.210Z,11.00
2018-06-14T23:40:45.892Z,10.10
2018-06-14T23:43:15.739Z,9.20
2018-06-14T23:45:45.465Z,13.53
2018-06-14T23:48:15.276Z,10.07
2018-06-14T23:50:44.954Z,9.33
2018-06-14T23:53:14.644Z,10.53
2018-06-14T23:55:44.459Z,10.10
2018-06-14T23:58:14.444Z,10.27
